sensor_id;sensor_type;location;lat;lon;timestamp;temperature;humidity
148;DHT22;142;50.652;12.216;2023-01-15T00:01:21;10.00;41.00
148;DHT22;142;50.652;12.216;2023-01-15T00:03:50;10.00;41.10
148;DHT22;142;50.652;12.216;2023-01-15T00:06:18;10.00;41.00
148;DHT22;142;50.652;12.216;2023-01-15T00:08:45;10.00;40.90
148;DHT22;142;50.652;12.216;2023-01-15T00:11:13;10.00;41.00
148;DHT22;142;50.652;12.216;2023-01-15T00:13:40;10.00;40.90
148;DHT22;142;50.652;12.216;2023-01-15T00:16:10;10.10;41.00
148;DHT22;142;50.652;12.216;2023-01-15T00:18:38;10.00;40.80
148;DHT22;142;50.652;12.216;2023-01-15T00:21:10;10.10;41.00
148;DHT22;142;50.652;12.216;2023-01-15T00:23:38;10.10;40.90
148;DHT22;142;50.652;12.216;2023-01-15T00:26:27;10.20;40.90
148;DHT22;142;50.652;12.216;2023-01-15T00:29:12;10.20;40.60
148;DHT22;142;50.652;12.216;2023-01-15T00:31:41;10.30;40.70
148;DHT22;142;50.652;12.216;2023-01-15T00:34:09;10.20;40.30
148;DHT22;142;50.652;12.216;2023-01-15T00:36:38;10.20;40.40
148;DHT22;142;50.652;12.216;2023-01-15T00:39:05;10.20;40.40
148;DHT22;142;50.652;12.216;2023-01-15T00:41:32;10.20;40.40
148;DHT22;142;50.652;12.216;2023-01-15T00:43:59;10.20;40.30
148;DHT22;142;50.652;12.216;2023-01-15T00:46:26;10.20;40.60
148;DHT22;142;50.652;12.216;2023-01-15T00:48:57;10.30;40.50
148;DHT22;142;50.652;12.216;2023-01-15T00:51:24;10.30;40.30
148;DHT22;142;50.652;12.216;2023-01-15T00:53:53;10.20;40.30
148;DHT22;142;50.652;12.216;2023-01-15T00:56:21;10.30;40.40
148;DHT22;142;50.652;12.216;2023-01-15T00:58:48;10.30;40.40
148;DHT22;142;50.652;12.216;2023-01-15T01:01:15;10.40;40.40
148;DHT22;142;50.652;12.216;2023-01-15T01:03:42;10.40;40.20
148;DHT22;142;50.652;12.216;2023-01-15T01:06:13;10.30;40.20
148;DHT22;142;50.652;12.216;2023-01-15T01:08:40;10.30;40.40
148;DHT22;142;50.652;12.216;2023-01-15T01:11:10;10.30;40.40
148;DHT22;142;50.652;12.216;2023-01-15T01:13:39;10.30;40.50
148;DHT22;142;50.652;12.216;2023-01-15T01:16:24;10.30;40.70
148;DHT22;142;50.652;12.216;2023-01-15T01:18:52;10.30;40.70
148;DHT22;142;50.652;12.216;2023-01-15T01:21:19;10.30;40.80
148;DHT22;142;50.652;12.216;2023-01-15T01:23:47;10.20;41.00
148;DHT22;142;50.652;12.216;2023-01-15T01:26:15;10.20;41.20
148;DHT22;142;50.652;12.216;2023-01-15T01:28:48;10.30;41.40
148;DHT22;142;50.652;12.216;2023-01-15T01:31:15;10.20;41.30
148;DHT22;142;50.652;12.216;2023-01-15T01:33:42;10.20;41.40
148;DHT22;142;50.652;12.216;2023-01-15T01:36:09;10.20;41.60
148;DHT22;142;50.652;12.216;2023-01-15T01:38:37;10.30;41.70
148;DHT22;142;50.652;12.216;2023-01-15T01:41:04;10.30;41.60
148;DHT22;142;50.652;12.216;2023-01-15T01:43:52;10.30;41.30
148;DHT22;142;50.652;12.216;2023-01-15T01:46:20;10.30;41.40
148;DHT22;142;50.652;12.216;2023-01-15T01:48:48;10.30;41.30
148;DHT22;142;50.652;12.216;2023-01-15T01:51:17;10.30;41.40
148;DHT22;142;50.652;12.216;2023-01-15T01:53:45;10.30;41.10
148;DHT22;142;50.652;12.216;2023-01-15T01:56:15;10.40;41.30
148;DHT22;142;50.652;12.216;2023-01-15T01:58:45;10.40;41.20
148;DHT22;142;50.652;12.216;2023-01-15T02:01:16;10.40;41.00
148;DHT22;142;50.652;12.216;2023-01-15T02:03:43;10.50;41.00
148;DHT22;142;50.652;12.216;2023-01-15T02:06:12;10.50;40.90
148;DHT22;142;50.652;12.216;2023-01-15T02:08:40;10.50;40.80
148;DHT22;142;50.652;12.216;2023-01-15T02:11:13;10.50;40.80
148;DHT22;142;50.652;12.216;2023-01-15T02:13:45;10.50;40.90
148;DHT22;142;50.652;12.216;2023-01-15T02:16:21;10.50;40.90
148;DHT22;142;50.652;12.216;2023-01-15T02:18:57;10.50;40.50
148;DHT22;142;50.652;12.216;2023-01-15T02:21:31;10.60;40.60
148;DHT22;142;50.652;12.216;2023-01-15T02:24:05;10.70;40.60
148;DHT22;142;50.652;12.216;2023-01-15T02:27:04;10.70;40.30
148;DHT22;142;50.652;12.216;2023-01-15T02:29:54;10.70;40.20
148;DHT22;142;50.652;12.216;2023-01-15T02:32:33;10.70;40.00
148;DHT22;142;50.652;12.216;2023-01-15T02:35:07;10.70;39.80
148;DHT22;142;50.652;12.216;2023-01-15T02:37:40;10.70;39.80
148;DHT22;142;50.652;12.216;2023-01-15T02:40:10;10.80;39.80
148;DHT22;142;50.652;12.216;2023-01-15T02:42:40;10.80;39.80
148;DHT22;142;50.652;12.216;2023-01-15T02:45:10;10.90;39.70
148;DHT22;142;50.652;12.216;2023-01-15T02:47:40;10.90;39.30
148;DHT22;142;50.652;12.216;2023-01-15T02:50:15;10.90;39.30
148;DHT22;142;50.652;12.216;2023-01-15T02:52:46;10.90;39.40
148;DHT22;142;50.652;12.216;2023-01-15T02:55:18;10.90;39.30
148;DHT22;142;50.652;12.216;2023-01-15T02:57:49;10.90;39.30
148;DHT22;142;50.652;12.216;2023-01-15T03:00:20;10.90;39.50
148;DHT22;142;50.652;12.216;2023-01-15T03:02:52;10.90;39.90
148;DHT22;142;50.652;12.216;2023-01-15T03:05:25;11.00;39.50
148;DHT22;142;50.652;12.216;2023-01-15T03:07:57;11.00;39.40
148;DHT22;142;50.652;12.216;2023-01-15T03:10:31;11.00;39.40
148;DHT22;142;50.652;12.216;2023-01-15T03:13:03;11.00;39.50
148;DHT22;142;50.652;12.216;2023-01-15T03:15:46;11.00;39.50
148;DHT22;142;50.652;12.216;2023-01-15T03:18:37;11.00;39.50
148;DHT22;142;50.652;12.216;2023-01-15T03:21:09;10.90;39.70
148;DHT22;142;50.652;12.216;2023-01-15T03:23:42;10.90;39.90
148;DHT22;142;50.652;12.216;2023-01-15T03:26:12;11.00;40.00
148;DHT22;142;50.652;12.216;2023-01-15T03:28:41;11.00;39.90
148;DHT22;142;50.652;12.216;2023-01-15T03:31:09;11.00;39.80
148;DHT22;142;50.652;12.216;2023-01-15T03:33:36;11.00;39.90
148;DHT22;142;50.652;12.216;2023-01-15T03:36:04;11.00;39.80
148;DHT22;142;50.652;12.216;2023-01-15T03:38:34;11.10;39.70
148;DHT22;142;50.652;12.216;2023-01-15T03:41:12;11.10;39.60
148;DHT22;142;50.652;12.216;2023-01-15T03:43:54;11.10;39.70
148;DHT22;142;50.652;12.216;2023-01-15T03:46:36;11.10;39.50
148;DHT22;142;50.652;12.216;2023-01-15T03:49:11;11.10;39.70
148;DHT22;142;50.652;12.216;2023-01-15T03:51:46;11.10;39.60
148;DHT22;142;50.652;12.216;2023-01-15T03:54:18;11.10;39.50
148;DHT22;142;50.652;12.216;2023-01-15T03:56:51;11.20;39.60
148;DHT22;142;50.652;12.216;2023-01-15T03:59:26;11.10;39.50
148;DHT22;142;50.652;12.216;2023-01-15T04:01:56;11.10;39.50
148;DHT22;142;50.652;12.216;2023-01-15T04:04:25;11.20;39.50
148;DHT22;142;50.652;12.216;2023-01-15T04:06:54;11.20;39.40
148;DHT22;142;50.652;12.216;2023-01-15T04:09:21;11.20;39.40
148;DHT22;142;50.652;12.216;2023-01-15T04:11:49;11.20;39.40
148;DHT22;142;50.652;12.216;2023-01-15T04:14:16;11.20;39.40
148;DHT22;142;50.652;12.216;2023-01-15T04:16:45;11.20;39.60
148;DHT22;142;50.652;12.216;2023-01-15T04:19:11;11.30;39.80
148;DHT22;142;50.652;12.216;2023-01-15T04:21:38;11.20;39.30
148;DHT22;142;50.652;12.216;2023-01-15T04:24:06;11.30;39.40
148;DHT22;142;50.652;12.216;2023-01-15T04:26:34;11.30;39.40
148;DHT22;142;50.652;12.216;2023-01-15T04:29:01;11.30;39.30
148;DHT22;142;50.652;12.216;2023-01-15T04:31:28;11.30;39.30
148;DHT22;142;50.652;12.216;2023-01-15T04:33:59;11.30;39.50
148;DHT22;142;50.652;12.216;2023-01-15T04:36:26;11.30;39.40
148;DHT22;142;50.652;12.216;2023-01-15T04:38:54;11.30;39.40
148;DHT22;142;50.652;12.216;2023-01-15T04:41:22;11.30;39.40
148;DHT22;142;50.652;12.216;2023-01-15T04:44:07;11.30;39.50
148;DHT22;142;50.652;12.216;2023-01-15T04:46:35;11.30;39.40
148;DHT22;142;50.652;12.216;2023-01-15T04:49:07;11.30;39.60
148;DHT22;142;50.652;12.216;2023-01-15T04:51:35;11.30;39.70
148;DHT22;142;50.652;12.216;2023-01-15T04:54:04;11.30;39.80
148;DHT22;142;50.652;12.216;2023-01-15T04:56:36;11.40;39.70
148;DHT22;142;50.652;12.216;2023-01-15T04:59:04;11.40;39.60
148;DHT22;142;50.652;12.216;2023-01-15T05:01:31;11.40;39.40
148;DHT22;142;50.652;12.216;2023-01-15T05:03:59;11.40;39.40
148;DHT22;142;50.652;12.216;2023-01-15T05:06:29;11.50;39.50
148;DHT22;142;50.652;12.216;2023-01-15T05:08:57;11.40;39.40
148;DHT22;142;50.652;12.216;2023-01-15T05:11:24;11.30;39.60
148;DHT22;142;50.652;12.216;2023-01-15T05:13:52;11.30;39.50
148;DHT22;142;50.652;12.216;2023-01-15T05:16:20;11.30;39.70
148;DHT22;142;50.652;12.216;2023-01-15T05:18:50;11.30;39.70
148;DHT22;142;50.652;12.216;2023-01-15T05:21:19;11.30;40.00
148;DHT22;142;50.652;12.216;2023-01-15T05:23:51;11.40;40.20
148;DHT22;142;50.652;12.216;2023-01-15T05:26:20;11.40;40.10
148;DHT22;142;50.652;12.216;2023-01-15T05:28:47;11.40;39.90
148;DHT22;142;50.652;12.216;2023-01-15T05:31:15;11.50;40.00
148;DHT22;142;50.652;12.216;2023-01-15T05:33:45;11.30;39.70
148;DHT22;142;50.652;12.216;2023-01-15T05:36:14;11.00;40.40
148;DHT22;142;50.652;12.216;2023-01-15T05:38:42;10.50;39.90
148;DHT22;142;50.652;12.216;2023-01-15T05:41:13;10.20;40.30
148;DHT22;142;50.652;12.216;2023-01-15T05:44:00;9.70;41.20
148;DHT22;142;50.652;12.216;2023-01-15T05:46:28;9.50;42.20
148;DHT22;142;50.652;12.216;2023-01-15T05:48:59;9.30;43.30
148;DHT22;142;50.652;12.216;2023-01-15T05:51:27;9.20;44.10
148;DHT22;142;50.652;12.216;2023-01-15T05:53:55;9.20;44.60
148;DHT22;142;50.652;12.216;2023-01-15T05:56:25;9.20;45.00
148;DHT22;142;50.652;12.216;2023-01-15T05:58:53;9.20;45.30
148;DHT22;142;50.652;12.216;2023-01-15T06:01:20;9.10;45.10
148;DHT22;142;50.652;12.216;2023-01-15T06:03:48;9.20;45.50
148;DHT22;142;50.652;12.216;2023-01-15T06:06:16;9.20;45.60
148;DHT22;142;50.652;12.216;2023-01-15T06:08:44;9.30;45.50
148;DHT22;142;50.652;12.216;2023-01-15T06:11:12;9.10;45.10
148;DHT22;142;50.652;12.216;2023-01-15T06:13:41;9.10;45.30
148;DHT22;142;50.652;12.216;2023-01-15T06:16:08;9.10;45.20
148;DHT22;142;50.652;12.216;2023-01-15T06:18:36;9.20;45.40
148;DHT22;142;50.652;12.216;2023-01-15T06:21:05;9.20;45.20
148;DHT22;142;50.652;12.216;2023-01-15T06:23:32;9.10;44.70
148;DHT22;142;50.652;12.216;2023-01-15T06:26:02;9.10;44.80
148;DHT22;142;50.652;12.216;2023-01-15T06:28:30;9.10;44.60
148;DHT22;142;50.652;12.216;2023-01-15T06:30:59;9.10;44.60
148;DHT22;142;50.652;12.216;2023-01-15T06:33:26;9.00;44.40
148;DHT22;142;50.652;12.216;2023-01-15T06:35:54;9.00;44.50
148;DHT22;142;50.652;12.216;2023-01-15T06:38:20;9.00;44.50
148;DHT22;142;50.652;12.216;2023-01-15T06:40:48;9.00;44.70
148;DHT22;142;50.652;12.216;2023-01-15T06:43:15;8.90;44.60
148;DHT22;142;50.652;12.216;2023-01-15T06:46:00;8.80;44.60
148;DHT22;142;50.652;12.216;2023-01-15T06:48:45;8.90;44.70
148;DHT22;142;50.652;12.216;2023-01-15T06:51:12;8.80;44.60
148;DHT22;142;50.652;12.216;2023-01-15T06:53:43;8.70;44.40
148;DHT22;142;50.652;12.216;2023-01-15T06:56:11;8.70;44.40
148;DHT22;142;50.652;12.216;2023-01-15T06:58:40;8.60;44.20
148;DHT22;142;50.652;12.216;2023-01-15T07:01:11;8.50;44.20
148;DHT22;142;50.652;12.216;2023-01-15T07:03:39;8.40;44.10
148;DHT22;142;50.652;12.216;2023-01-15T07:06:08;8.30;44.30
148;DHT22;142;50.652;12.216;2023-01-15T07:08:36;8.40;44.60
148;DHT22;142;50.652;12.216;2023-01-15T07:11:04;8.30;44.60
148;DHT22;142;50.652;12.216;2023-01-15T07:13:32;8.30;44.40
148;DHT22;142;50.652;12.216;2023-01-15T07:16:01;8.10;44.00
148;DHT22;142;50.652;12.216;2023-01-15T07:18:31;8.10;44.20
148;DHT22;142;50.652;12.216;2023-01-15T07:20:59;8.10;44.20
148;DHT22;142;50.652;12.216;2023-01-15T07:23:27;8.10;44.20
148;DHT22;142;50.652;12.216;2023-01-15T07:25:55;8.10;44.10
148;DHT22;142;50.652;12.216;2023-01-15T07:28:22;8.10;44.20
148;DHT22;142;50.652;12.216;2023-01-15T07:30:50;8.10;44.10
148;DHT22;142;50.652;12.216;2023-01-15T07:33:17;8.10;44.30
148;DHT22;142;50.652;12.216;2023-01-15T07:35:46;8.20;44.50
148;DHT22;142;50.652;12.216;2023-01-15T07:38:13;8.20;44.50
148;DHT22;142;50.652;12.216;2023-01-15T07:40:40;8.30;44.50
148;DHT22;142;50.652;12.216;2023-01-15T07:43:08;8.30;44.50
148;DHT22;142;50.652;12.216;2023-01-15T07:45:52;8.20;44.20
148;DHT22;142;50.652;12.216;2023-01-15T07:48:37;8.20;44.00
148;DHT22;142;50.652;12.216;2023-01-15T07:51:23;8.10;44.10
148;DHT22;142;50.652;12.216;2023-01-15T07:53:50;7.90;44.00
148;DHT22;142;50.652;12.216;2023-01-15T07:56:17;7.80;44.30
148;DHT22;142;50.652;12.216;2023-01-15T07:58:44;7.70;44.70
148;DHT22;142;50.652;12.216;2023-01-15T08:01:14;7.50;44.50
148;DHT22;142;50.652;12.216;2023-01-15T08:03:41;7.50;44.80
148;DHT22;142;50.652;12.216;2023-01-15T08:06:09;7.30;44.70
148;DHT22;142;50.652;12.216;2023-01-15T08:08:37;7.20;44.50
148;DHT22;142;50.652;12.216;2023-01-15T08:11:05;7.20;44.40
148;DHT22;142;50.652;12.216;2023-01-15T08:13:49;7.20;44.50
148;DHT22;142;50.652;12.216;2023-01-15T08:16:34;7.10;43.90
148;DHT22;142;50.652;12.216;2023-01-15T08:19:02;6.90;43.50
148;DHT22;142;50.652;12.216;2023-01-15T08:21:30;6.90;43.40
148;DHT22;142;50.652;12.216;2023-01-15T08:23:58;7.00;43.60
148;DHT22;142;50.652;12.216;2023-01-15T08:26:25;7.00;43.40
148;DHT22;142;50.652;12.216;2023-01-15T08:28:52;7.00;43.40
148;DHT22;142;50.652;12.216;2023-01-15T08:31:20;7.00;43.40
148;DHT22;142;50.652;12.216;2023-01-15T08:33:47;6.80;42.90
148;DHT22;142;50.652;12.216;2023-01-15T08:36:13;6.90;43.20
148;DHT22;142;50.652;12.216;2023-01-15T08:38:43;6.80;43.20
148;DHT22;142;50.652;12.216;2023-01-15T08:41:11;6.90;43.50
148;DHT22;142;50.652;12.216;2023-01-15T08:43:38;6.90;43.60
148;DHT22;142;50.652;12.216;2023-01-15T08:46:06;7.00;43.80
148;DHT22;142;50.652;12.216;2023-01-15T08:48:33;7.10;43.90
148;DHT22;142;50.652;12.216;2023-01-15T08:51:04;7.00;43.80
148;DHT22;142;50.652;12.216;2023-01-15T08:53:32;7.00;43.70
148;DHT22;142;50.652;12.216;2023-01-15T08:55:59;7.00;43.90
148;DHT22;142;50.652;12.216;2023-01-15T08:58:28;7.00;43.90
148;DHT22;142;50.652;12.216;2023-01-15T09:00:55;7.10;44.00
148;DHT22;142;50.652;12.216;2023-01-15T09:03:23;7.20;44.40
148;DHT22;142;50.652;12.216;2023-01-15T09:05:50;7.30;44.50
148;DHT22;142;50.652;12.216;2023-01-15T09:08:17;7.30;44.50
148;DHT22;142;50.652;12.216;2023-01-15T09:10:45;7.20;44.20
148;DHT22;142;50.652;12.216;2023-01-15T09:13:12;7.10;43.70
148;DHT22;142;50.652;12.216;2023-01-15T09:15:40;7.00;43.40
148;DHT22;142;50.652;12.216;2023-01-15T09:18:07;7.00;43.60
148;DHT22;142;50.652;12.216;2023-01-15T09:20:37;7.10;43.60
148;DHT22;142;50.652;12.216;2023-01-15T09:23:04;7.20;43.50
148;DHT22;142;50.652;12.216;2023-01-15T09:25:31;7.20;43.30
148;DHT22;142;50.652;12.216;2023-01-15T09:27:58;7.20;43.10
148;DHT22;142;50.652;12.216;2023-01-15T09:30:28;7.30;42.80
148;DHT22;142;50.652;12.216;2023-01-15T09:32:57;7.30;42.60
148;DHT22;142;50.652;12.216;2023-01-15T09:35:24;7.20;42.40
148;DHT22;142;50.652;12.216;2023-01-15T09:37:51;7.30;42.70
148;DHT22;142;50.652;12.216;2023-01-15T09:40:39;7.30;42.50
148;DHT22;142;50.652;12.216;2023-01-15T09:43:18;7.30;42.20
148;DHT22;142;50.652;12.216;2023-01-15T09:45:53;7.00;41.30
148;DHT22;142;50.652;12.216;2023-01-15T09:48:36;7.00;40.90
148;DHT22;142;50.652;12.216;2023-01-15T09:51:15;7.00;40.90
148;DHT22;142;50.652;12.216;2023-01-15T09:53:55;6.90;39.90
148;DHT22;142;50.652;12.216;2023-01-15T09:56:28;6.80;39.80
148;DHT22;142;50.652;12.216;2023-01-15T09:58:59;6.80;39.60
148;DHT22;142;50.652;12.216;2023-01-15T10:01:31;6.90;39.90
148;DHT22;142;50.652;12.216;2023-01-15T10:04:05;6.90;39.50
148;DHT22;142;50.652;12.216;2023-01-15T10:06:37;6.90;39.20
148;DHT22;142;50.652;12.216;2023-01-15T10:09:12;6.70;39.20
148;DHT22;142;50.652;12.216;2023-01-15T10:11:43;6.70;39.30
148;DHT22;142;50.652;12.216;2023-01-15T10:14:39;6.80;39.70
148;DHT22;142;50.652;12.216;2023-01-15T10:17:18;6.80;40.00
148;DHT22;142;50.652;12.216;2023-01-15T10:19:48;6.90;40.10
148;DHT22;142;50.652;12.216;2023-01-15T10:22:25;7.00;40.10
148;DHT22;142;50.652;12.216;2023-01-15T10:24:56;7.20;40.40
148;DHT22;142;50.652;12.216;2023-01-15T10:27:25;7.20;40.40
148;DHT22;142;50.652;12.216;2023-01-15T10:29:58;7.10;39.70
148;DHT22;142;50.652;12.216;2023-01-15T10:32:36;7.20;40.00
148;DHT22;142;50.652;12.216;2023-01-15T10:35:26;7.30;40.30
148;DHT22;142;50.652;12.216;2023-01-15T10:37:58;7.40;40.10
148;DHT22;142;50.652;12.216;2023-01-15T10:40:40;7.30;39.90
148;DHT22;142;50.652;12.216;2023-01-15T10:43:14;7.30;39.80
148;DHT22;142;50.652;12.216;2023-01-15T10:45:47;7.50;39.90
148;DHT22;142;50.652;12.216;2023-01-15T10:48:21;7.50;39.80
148;DHT22;142;50.652;12.216;2023-01-15T10:50:51;7.40;39.60
148;DHT22;142;50.652;12.216;2023-01-15T10:53:27;7.20;39.20
148;DHT22;142;50.652;12.216;2023-01-15T10:56:00;7.30;39.60
148;DHT22;142;50.652;12.216;2023-01-15T10:58:34;7.30;39.50
148;DHT22;142;50.652;12.216;2023-01-15T11:01:05;7.40;39.40
148;DHT22;142;50.652;12.216;2023-01-15T11:03:36;7.30;39.00
148;DHT22;142;50.652;12.216;2023-01-15T11:06:12;7.40;38.90
148;DHT22;142;50.652;12.216;2023-01-15T11:08:43;7.30;38.70
148;DHT22;142;50.652;12.216;2023-01-15T11:11:18;7.30;38.60
148;DHT22;142;50.652;12.216;2023-01-15T11:13:53;7.30;38.70
148;DHT22;142;50.652;12.216;2023-01-15T11:16:39;7.20;39.00
148;DHT22;142;50.652;12.216;2023-01-15T11:19:28;7.20;38.70
148;DHT22;142;50.652;12.216;2023-01-15T11:22:09;7.20;38.80
148;DHT22;142;50.652;12.216;2023-01-15T11:24:37;7.20;38.60
148;DHT22;142;50.652;12.216;2023-01-15T11:27:14;7.30;38.80
148;DHT22;142;50.652;12.216;2023-01-15T11:29:43;7.40;38.80
148;DHT22;142;50.652;12.216;2023-01-15T11:32:21;7.50;38.60
148;DHT22;142;50.652;12.216;2023-01-15T11:34:53;7.60;38.70
148;DHT22;142;50.652;12.216;2023-01-15T11:37:22;7.70;38.60
148;DHT22;142;50.652;12.216;2023-01-15T11:39:56;7.90;38.90
148;DHT22;142;50.652;12.216;2023-01-15T11:42:25;7.90;38.20
148;DHT22;142;50.652;12.216;2023-01-15T11:45:15;7.80;38.00
148;DHT22;142;50.652;12.216;2023-01-15T11:47:59;7.80;37.90
148;DHT22;142;50.652;12.216;2023-01-15T11:50:51;7.60;37.70
148;DHT22;142;50.652;12.216;2023-01-15T11:53:22;7.50;37.70
148;DHT22;142;50.652;12.216;2023-01-15T11:55:53;7.40;37.60
148;DHT22;142;50.652;12.216;2023-01-15T11:58:21;7.50;37.90
148;DHT22;142;50.652;12.216;2023-01-15T12:00:51;7.60;38.00
148;DHT22;142;50.652;12.216;2023-01-15T12:03:21;7.70;38.20
148;DHT22;142;50.652;12.216;2023-01-15T12:05:54;7.70;37.70
148;DHT22;142;50.652;12.216;2023-01-15T12:08:36;7.50;37.20
148;DHT22;142;50.652;12.216;2023-01-15T12:11:14;7.60;37.60
148;DHT22;142;50.652;12.216;2023-01-15T12:13:51;7.60;37.40
148;DHT22;142;50.652;12.216;2023-01-15T12:16:26;7.70;37.70
148;DHT22;142;50.652;12.216;2023-01-15T12:19:04;7.80;37.60
148;DHT22;142;50.652;12.216;2023-01-15T12:21:59;7.80;37.40
148;DHT22;142;50.652;12.216;2023-01-15T12:30:48;8.00;37.30
148;DHT22;142;50.652;12.216;2023-01-15T12:33:26;7.90;37.20
148;DHT22;142;50.652;12.216;2023-01-15T12:35:59;7.70;37.00
148;DHT22;142;50.652;12.216;2023-01-15T12:38:40;7.80;37.70
148;DHT22;142;50.652;12.216;2023-01-15T12:41:13;7.80;37.40
148;DHT22;142;50.652;12.216;2023-01-15T12:43:43;7.90;37.30
148;DHT22;142;50.652;12.216;2023-01-15T12:46:32;7.90;37.10
148;DHT22;142;50.652;12.216;2023-01-15T12:49:05;7.70;37.10
148;DHT22;142;50.652;12.216;2023-01-15T12:51:48;7.60;37.40
148;DHT22;142;50.652;12.216;2023-01-15T12:54:21;7.40;37.20
148;DHT22;142;50.652;12.216;2023-01-15T12:56:56;7.40;37.40
148;DHT22;142;50.652;12.216;2023-01-15T12:59:28;7.30;37.10
148;DHT22;142;50.652;12.216;2023-01-15T13:02:03;7.30;37.30
148;DHT22;142;50.652;12.216;2023-01-15T13:04:43;7.50;37.50
148;DHT22;142;50.652;12.216;2023-01-15T13:07:16;7.50;37.20
148;DHT22;142;50.652;12.216;2023-01-15T13:09:48;7.40;37.00
148;DHT22;142;50.652;12.216;2023-01-15T13:12:20;7.40;37.10
148;DHT22;142;50.652;12.216;2023-01-15T13:14:48;7.40;37.10
148;DHT22;142;50.652;12.216;2023-01-15T13:17:21;7.40;36.90
148;DHT22;142;50.652;12.216;2023-01-15T13:20:11;7.30;36.90
148;DHT22;142;50.652;12.216;2023-01-15T13:22:46;7.30;37.10
148;DHT22;142;50.652;12.216;2023-01-15T13:28:29;7.40;36.90
148;DHT22;142;50.652;12.216;2023-01-15T13:31:05;7.20;37.10
148;DHT22;142;50.652;12.216;2023-01-15T13:33:38;7.10;37.00
148;DHT22;142;50.652;12.216;2023-01-15T13:36:12;7.10;37.20
148;DHT22;142;50.652;12.216;2023-01-15T13:38:42;7.00;37.00
148;DHT22;142;50.652;12.216;2023-01-15T13:41:16;7.10;37.10
148;DHT22;142;50.652;12.216;2023-01-15T13:44:15;7.10;37.00
148;DHT22;142;50.652;12.216;2023-01-15T13:46:45;7.20;36.90
148;DHT22;142;50.652;12.216;2023-01-15T13:49:17;7.10;37.00
148;DHT22;142;50.652;12.216;2023-01-15T13:51:47;7.00;36.80
148;DHT22;142;50.652;12.216;2023-01-15T13:54:17;7.00;37.00
148;DHT22;142;50.652;12.216;2023-01-15T13:56:45;7.00;37.00
148;DHT22;142;50.652;12.216;2023-01-15T13:59:39;7.10;37.00
148;DHT22;142;50.652;12.216;2023-01-15T14:02:23;7.10;37.00
148;DHT22;142;50.652;12.216;2023-01-15T14:04:51;7.10;37.00
148;DHT22;142;50.652;12.216;2023-01-15T14:07:20;7.00;36.60
148;DHT22;142;50.652;12.216;2023-01-15T14:09:48;7.00;37.20
148;DHT22;142;50.652;12.216;2023-01-15T14:12:24;6.80;36.60
148;DHT22;142;50.652;12.216;2023-01-15T14:15:31;6.90;36.80
148;DHT22;142;50.652;12.216;2023-01-15T14:18:16;6.80;36.80
148;DHT22;142;50.652;12.216;2023-01-15T14:21:04;6.80;36.90
148;DHT22;142;50.652;12.216;2023-01-15T14:23:50;6.80;36.70
148;DHT22;142;50.652;12.216;2023-01-15T14:26:30;6.80;36.70
148;DHT22;142;50.652;12.216;2023-01-15T14:29:12;6.80;36.80
148;DHT22;142;50.652;12.216;2023-01-15T14:32:00;6.70;36.80
148;DHT22;142;50.652;12.216;2023-01-15T14:34:30;6.80;37.00
148;DHT22;142;50.652;12.216;2023-01-15T14:37:04;6.70;36.80
148;DHT22;142;50.652;12.216;2023-01-15T14:39:41;6.60;36.60
148;DHT22;142;50.652;12.216;2023-01-15T14:42:15;6.60;36.90
148;DHT22;142;50.652;12.216;2023-01-15T14:45:13;6.60;37.20
148;DHT22;142;50.652;12.216;2023-01-15T14:47:49;6.50;37.00
148;DHT22;142;50.652;12.216;2023-01-15T14:50:26;6.40;36.90
148;DHT22;142;50.652;12.216;2023-01-15T14:52:59;6.50;37.00
148;DHT22;142;50.652;12.216;2023-01-15T14:55:29;6.50;37.00
148;DHT22;142;50.652;12.216;2023-01-15T14:57:59;6.60;36.90
148;DHT22;142;50.652;12.216;2023-01-15T15:00:33;6.60;37.10
148;DHT22;142;50.652;12.216;2023-01-15T15:03:16;6.50;36.90
148;DHT22;142;50.652;12.216;2023-01-15T15:05:46;6.30;36.70
148;DHT22;142;50.652;12.216;2023-01-15T15:08:15;6.30;37.10
148;DHT22;142;50.652;12.216;2023-01-15T15:10:52;6.30;37.10
148;DHT22;142;50.652;12.216;2023-01-15T15:13:27;6.30;37.00
148;DHT22;142;50.652;12.216;2023-01-15T15:16:00;6.20;37.20
148;DHT22;142;50.652;12.216;2023-01-15T15:18:37;6.20;37.00
148;DHT22;142;50.652;12.216;2023-01-15T15:21:09;6.20;37.30
148;DHT22;142;50.652;12.216;2023-01-15T15:23:44;6.20;37.00
148;DHT22;142;50.652;12.216;2023-01-15T15:26:24;6.20;37.10
148;DHT22;142;50.652;12.216;2023-01-15T15:28:59;6.10;37.00
148;DHT22;142;50.652;12.216;2023-01-15T15:31:33;6.10;37.20
148;DHT22;142;50.652;12.216;2023-01-15T15:34:03;6.10;37.10
148;DHT22;142;50.652;12.216;2023-01-15T15:36:35;5.90;37.20
148;DHT22;142;50.652;12.216;2023-01-15T15:41:55;5.80;37.40
148;DHT22;142;50.652;12.216;2023-01-15T15:44:49;5.70;37.30
148;DHT22;142;50.652;12.216;2023-01-15T15:47:37;5.70;37.40
148;DHT22;142;50.652;12.216;2023-01-15T15:50:25;5.60;37.30
148;DHT22;142;50.652;12.216;2023-01-15T15:52:54;5.60;37.50
148;DHT22;142;50.652;12.216;2023-01-15T15:55:24;5.60;37.40
148;DHT22;142;50.652;12.216;2023-01-15T15:57:59;5.60;37.30
148;DHT22;142;50.652;12.216;2023-01-15T16:00:30;5.60;37.30
148;DHT22;142;50.652;12.216;2023-01-15T16:03:03;5.70;37.30
148;DHT22;142;50.652;12.216;2023-01-15T16:05:32;5.70;37.60
148;DHT22;142;50.652;12.216;2023-01-15T16:08:18;5.60;37.20
148;DHT22;142;50.652;12.216;2023-01-15T16:10:48;5.70;37.30
148;DHT22;142;50.652;12.216;2023-01-15T16:13:22;5.80;37.30
148;DHT22;142;50.652;12.216;2023-01-15T16:15:54;5.80;37.30
148;DHT22;142;50.652;12.216;2023-01-15T16:18:24;5.90;37.20
148;DHT22;142;50.652;12.216;2023-01-15T16:20:54;6.00;37.20
148;DHT22;142;50.652;12.216;2023-01-15T16:23:23;6.00;37.20
148;DHT22;142;50.652;12.216;2023-01-15T16:26:00;6.00;37.20
148;DHT22;142;50.652;12.216;2023-01-15T16:28:35;6.00;37.10
148;DHT22;142;50.652;12.216;2023-01-15T16:31:04;6.00;37.10
148;DHT22;142;50.652;12.216;2023-01-15T16:33:32;6.00;37.20
148;DHT22;142;50.652;12.216;2023-01-15T16:36:02;6.00;37.00
148;DHT22;142;50.652;12.216;2023-01-15T16:38:34;6.00;37.20
148;DHT22;142;50.652;12.216;2023-01-15T16:41:02;6.00;37.20
148;DHT22;142;50.652;12.216;2023-01-15T16:43:30;6.00;37.00
148;DHT22;142;50.652;12.216;2023-01-15T16:46:01;6.00;37.10
148;DHT22;142;50.652;12.216;2023-01-15T16:48:31;6.00;37.00
148;DHT22;142;50.652;12.216;2023-01-15T16:51:30;6.00;37.00
148;DHT22;142;50.652;12.216;2023-01-15T16:53:58;5.90;37.30
148;DHT22;142;50.652;12.216;2023-01-15T16:56:49;5.90;37.30
148;DHT22;142;50.652;12.216;2023-01-15T16:59:18;6.00;37.40
148;DHT22;142;50.652;12.216;2023-01-15T17:02:11;5.90;37.30
148;DHT22;142;50.652;12.216;2023-01-15T17:04:41;5.90;37.30
148;DHT22;142;50.652;12.216;2023-01-15T17:07:16;5.90;37.20
148;DHT22;142;50.652;12.216;2023-01-15T17:09:47;5.80;37.20
148;DHT22;142;50.652;12.216;2023-01-15T17:12:23;5.80;37.30
148;DHT22;142;50.652;12.216;2023-01-15T17:15:02;5.80;37.40
148;DHT22;142;50.652;12.216;2023-01-15T17:17:46;5.70;37.20